sensor_id;sensor_type;location;lat;lon;timestamp;pressure;altitude;pressure_sealevel;temperature;humidity
79703;BME280;69172;52.352;5.006;2024-03-23T00:54:19;101105.56;;;6.77;100.00
79703;BME280;69172;52.352;5.006;2024-03-23T00:56:46;101095.44;;;6.67;100.00
79703;BME280;69172;52.352;5.006;2024-03-23T00:59:13;101098.66;;;6.65;100.00
79703;BME280;69172;52.352;5.006;2024-03-23T01:01:39;101090.88;;;6.63;100.00
79703;BME280;69172;52.352;5.006;2024-03-23T01:04:04;101092.31;;;6.59;100.00
79703;BME280;69172;52.352;5.006;2024-03-23T01:06:30;101078.88;;;6.62;100.00
79703;BME280;69172;52.352;5.006;2024-03-23T01:08:55;101075.19;;;6.58;100.00
79703;BME280;69172;52.352;5.006;2024-03-23T01:11:20;101069.59;;;6.52;100.00
79703;BME280;69172;52.352;5.006;2024-03-23T01:13:46;101060.84;;;6.49;100.00
79703;BME280;69172;52.352;5.006;2024-03-23T01:16:11;101049.59;;;6.47;100.00
79703;BME280;69172;52.352;5.006;2024-03-23T01:18:36;101055.28;;;6.43;100.00
79703;BME280;69172;52.352;5.006;2024-03-23T01:21:02;101049.03;;;6.39;100.00
79703;BME280;69172;52.352;5.006;2024-03-23T01:23:28;101047.94;;;6.36;100.00
79703;BME280;69172;52.352;5.006;2024-03-23T01:25:54;101042.34;;;6.30;100.00
79703;BME280;69172;52.352;5.006;2024-03-23T01:28:22;101043.34;;;6.32;100.00
79703;BME280;69172;52.352;5.006;2024-03-23T01:30:49;101039.56;;;6.27;100.00
79703;BME280;69172;52.352;5.006;2024-03-23T01:33:15;101042.13;;;6.27;100.00
79703;BME280;69172;52.352;5.006;2024-03-23T01:35:42;101039.09;;;6.21;100.00
79703;BME280;69172;52.352;5.006;2024-03-23T01:38:07;101044.78;;;6.28;100.00
79703;BME280;69172;52.352;5.006;2024-03-23T01:40:32;101030.88;;;6.13;100.00
79703;BME280;69172;52.352;5.006;2024-03-23T01:42:59;101031.88;;;6.15;100.00
79703;BME280;69172;52.352;5.006;2024-03-23T01:45:27;101016.06;;;6.09;100.00
79703;BME280;69172;52.352;5.006;2024-03-23T01:47:52;101035.31;;;6.16;100.00
79703;BME280;69172;52.352;5.006;2024-03-23T01:50:20;101030.09;;;6.14;100.00
79703;BME280;69172;52.352;5.006;2024-03-23T01:52:46;101024.41;;;6.07;100.00
79703;BME280;69172;52.352;5.006;2024-03-23T01:55:12;101029.22;;;6.14;100.00
79703;BME280;69172;52.352;5.006;2024-03-23T01:57:38;101035.13;;;6.24;100.00
79703;BME280;69172;52.352;5.006;2024-03-23T02:00:04;101025.56;;;6.22;100.00
79703;BME280;69172;52.352;5.006;2024-03-23T02:02:30;101022.78;;;6.19;100.00
79703;BME280;69172;52.352;5.006;2024-03-23T02:04:55;101024.03;;;6.24;100.00
79703;BME280;69172;52.352;5.006;2024-03-23T02:07:21;101021.13;;;6.19;100.00
79703;BME280;69172;52.352;5.006;2024-03-23T02:09:47;101018.81;;;6.22;100.00
79703;BME280;69172;52.352;5.006;2024-03-23T02:12:14;101016.44;;;6.25;100.00
79703;BME280;69172;52.352;5.006;2024-03-23T02:14:41;101015.69;;;6.26;100.00
79703;BME280;69172;52.352;5.006;2024-03-23T02:17:12;101020.91;;;6.28;100.00
79703;BME280;69172;52.352;5.006;2024-03-23T02:19:38;101022.25;;;6.34;100.00
79703;BME280;69172;52.352;5.006;2024-03-23T02:25:50;101013.59;;;6.32;100.00
79703;BME280;69172;52.352;5.006;2024-03-23T02:28:21;101007.28;;;6.39;100.00
79703;BME280;69172;52.352;5.006;2024-03-23T02:30:51;101001.97;;;6.36;100.00
79703;BME280;69172;52.352;5.006;2024-03-23T02:33:22;101012.50;;;6.40;100.00
79703;BME280;69172;52.352;5.006;2024-03-23T02:35:50;101000.63;;;6.41;100.00
79703;BME280;69172;52.352;5.006;2024-03-23T02:38:22;100997.72;;;6.36;100.00
79703;BME280;69172;52.352;5.006;2024-03-23T02:40:47;100989.53;;;6.40;100.00
79703;BME280;69172;52.352;5.006;2024-03-23T02:43:14;100985.59;;;6.34;100.00
79703;BME280;69172;52.352;5.006;2024-03-23T02:45:39;100982.84;;;6.42;100.00
79703;BME280;69172;52.352;5.006;2024-03-23T02:48:05;100985.97;;;6.38;100.00
79703;BME280;69172;52.352;5.006;2024-03-23T02:50:30;100982.28;;;6.35;100.00
79703;BME280;69172;52.352;5.006;2024-03-23T02:52:57;100981.41;;;6.34;100.00
79703;BME280;69172;52.352;5.006;2024-03-23T02:55:22;100987.63;;;6.38;100.00
79703;BME280;69172;52.352;5.006;2024-03-23T02:57:48;100986.63;;;6.36;100.00
79703;BME280;69172;52.352;5.006;2024-03-23T03:00:13;100989.72;;;6.32;100.00
79703;BME280;69172;52.352;5.006;2024-03-23T03:02:38;100976.63;;;6.27;100.00
79703;BME280;69172;52.352;5.006;2024-03-23T03:05:05;100977.72;;;6.31;100.00
79703;BME280;69172;52.352;5.006;2024-03-23T03:07:31;100978.63;;;6.31;100.00
79703;BME280;69172;52.352;5.006;2024-03-23T03:09:58;100978.50;;;6.30;100.00
79703;BME280;69172;52.352;5.006;2024-03-23T03:12:26;100968.72;;;6.24;100.00
79703;BME280;69172;52.352;5.006;2024-03-23T03:14:53;100972.28;;;6.26;100.00
79703;BME280;69172;52.352;5.006;2024-03-23T03:17:19;100973.94;;;6.26;100.00
79703;BME280;69172;52.352;5.006;2024-03-23T03:19:44;100979.72;;;6.23;100.00
79703;BME280;69172;52.352;5.006;2024-03-23T03:22:10;100971.38;;;6.26;100.00
79703;BME280;69172;52.352;5.006;2024-03-23T03:24:36;100965.28;;;6.24;100.00
79703;BME280;69172;52.352;5.006;2024-03-23T03:27:01;100955.50;;;6.18;100.00
79703;BME280;69172;52.352;5.006;2024-03-23T03:29:28;100961.38;;;6.17;100.00
79703;BME280;69172;52.352;5.006;2024-03-23T03:32:04;100954.38;;;6.15;100.00
79703;BME280;69172;52.352;5.006;2024-03-23T03:34:30;100953.38;;;6.13;100.00
79703;BME280;69172;52.352;5.006;2024-03-23T03:36:56;100945.25;;;6.07;100.00
79703;BME280;69172;52.352;5.006;2024-03-23T03:39:22;100953.56;;;6.04;100.00
79703;BME280;69172;52.352;5.006;2024-03-23T03:41:49;100952.59;;;6.02;100.00
79703;BME280;69172;52.352;5.006;2024-03-23T03:44:15;100943.94;;;6.00;100.00
79703;BME280;69172;52.352;5.006;2024-03-23T03:46:41;100943.56;;;5.95;100.00
79703;BME280;69172;52.352;5.006;2024-03-23T03:49:07;100926.59;;;5.96;100.00
79703;BME280;69172;52.352;5.006;2024-03-23T03:51:34;100948.38;;;6.03;100.00
79703;BME280;69172;52.352;5.006;2024-03-23T03:53:59;100942.38;;;6.02;100.00
79703;BME280;69172;52.352;5.006;2024-03-23T03:56:26;100943.13;;;6.01;100.00
79703;BME280;69172;52.352;5.006;2024-03-23T03:58:52;100939.13;;;5.93;100.00
79703;BME280;69172;52.352;5.006;2024-03-23T04:01:18;100925.03;;;5.86;100.00
79703;BME280;69172;52.352;5.006;2024-03-23T04:03:43;100926.50;;;5.84;100.00
79703;BME280;69172;52.352;5.006;2024-03-23T04:06:19;100924.28;;;5.77;100.00
79703;BME280;69172;52.352;5.006;2024-03-23T04:08:50;100923.16;;;5.74;100.00
79703;BME280;69172;52.352;5.006;2024-03-23T04:11:15;100926.75;;;5.76;100.00
79703;BME280;69172;52.352;5.006;2024-03-23T04:13:49;100926.09;;;5.78;100.00
79703;BME280;69172;52.352;5.006;2024-03-23T04:16:27;100934.06;;;5.83;100.00
79703;BME280;69172;52.352;5.006;2024-03-23T04:18:53;100924.91;;;5.85;100.00
79703;BME280;69172;52.352;5.006;2024-03-23T04:21:19;100920.09;;;5.78;100.00
79703;BME280;69172;52.352;5.006;2024-03-23T04:23:44;100926.50;;;5.84;100.00
79703;BME280;69172;52.352;5.006;2024-03-23T04:26:45;100928.88;;;5.81;100.00
79703;BME280;69172;52.352;5.006;2024-03-23T04:32:28;100923.72;;;5.91;100.00
79703;BME280;69172;52.352;5.006;2024-03-23T04:34:53;100927.25;;;5.93;100.00
79703;BME280;69172;52.352;5.006;2024-03-23T04:37:20;100912.94;;;5.95;100.00
79703;BME280;69172;52.352;5.006;2024-03-23T04:39:47;100922.63;;;5.99;100.00
79703;BME280;69172;52.352;5.006;2024-03-23T04:42:14;100907.81;;;5.95;100.00
79703;BME280;69172;52.352;5.006;2024-03-23T04:44:40;100906.31;;;5.97;100.00
79703;BME280;69172;52.352;5.006;2024-03-23T04:47:05;100909.28;;;6.04;100.00
79703;BME280;69172;52.352;5.006;2024-03-23T04:49:30;100917.59;;;6.01;100.00
79703;BME280;69172;52.352;5.006;2024-03-23T04:51:56;100905.03;;;5.92;100.00
79703;BME280;69172;52.352;5.006;2024-03-23T04:54:21;100914.72;;;5.96;100.00
79703;BME280;69172;52.352;5.006;2024-03-23T04:56:47;100917.03;;;5.93;100.00
79703;BME280;69172;52.352;5.006;2024-03-23T04:59:12;100910.81;;;5.90;100.00
79703;BME280;69172;52.352;5.006;2024-03-23T05:01:38;100917.59;;;5.89;100.00
79703;BME280;69172;52.352;5.006;2024-03-23T05:04:08;100915.38;;;5.94;100.00
79703;BME280;69172;52.352;5.006;2024-03-23T05:06:33;100910.16;;;5.92;100.00
79703;BME280;69172;52.352;5.006;2024-03-23T05:09:00;100913.50;;;5.91;100.00
79703;BME280;69172;52.352;5.006;2024-03-23T05:11:26;100903.22;;;5.80;100.00
79703;BME280;69172;52.352;5.006;2024-03-23T05:13:52;100907.94;;;5.85;100.00
79703;BME280;69172;52.352;5.006;2024-03-23T05:16:18;100918.13;;;5.85;100.00
79703;BME280;69172;52.352;5.006;2024-03-23T05:18:45;100912.59;;;5.91;100.00
79703;BME280;69172;52.352;5.006;2024-03-23T05:21:12;100920.28;;;6.03;100.00
79703;BME280;69172;52.352;5.006;2024-03-23T05:23:37;100911.97;;;6.05;100.00
79703;BME280;69172;52.352;5.006;2024-03-23T05:26:03;100917.88;;;6.16;100.00
79703;BME280;69172;52.352;5.006;2024-03-23T05:28:29;100915.31;;;6.16;100.00
79703;BME280;69172;52.352;5.006;2024-03-23T05:30:55;100914.66;;;6.18;100.00
79703;BME280;69172;52.352;5.006;2024-03-23T05:33:22;100908.34;;;6.25;100.00
79703;BME280;69172;52.352;5.006;2024-03-23T05:35:57;100902.44;;;6.26;100.00
79703;BME280;69172;52.352;5.006;2024-03-23T05:38:23;100898.91;;;6.35;100.00
79703;BME280;69172;52.352;5.006;2024-03-23T05:40:56;100897.13;;;6.34;100.00
79703;BME280;69172;52.352;5.006;2024-03-23T05:43:23;100907.22;;;6.33;100.00
79703;BME280;69172;52.352;5.006;2024-03-23T05:45:54;100906.66;;;6.37;100.00
79703;BME280;69172;52.352;5.006;2024-03-23T05:48:20;100900.25;;;6.30;100.00
79703;BME280;69172;52.352;5.006;2024-03-23T05:50:47;100904.44;;;6.30;100.00
79703;BME280;69172;52.352;5.006;2024-03-23T05:53:13;100892.34;;;6.27;100.00
79703;BME280;69172;52.352;5.006;2024-03-23T05:55:38;100906.13;;;6.29;100.00
79703;BME280;69172;52.352;5.006;2024-03-23T05:58:03;100895.00;;;6.29;100.00
79703;BME280;69172;52.352;5.006;2024-03-23T06:00:36;100896.78;;;6.30;100.00
79703;BME280;69172;52.352;5.006;2024-03-23T06:03:03;100894.91;;;6.27;100.00
79703;BME280;69172;52.352;5.006;2024-03-23T06:05:29;100899.22;;;6.28;100.00
79703;BME280;69172;52.352;5.006;2024-03-23T06:07:54;100890.03;;;6.30;100.00
79703;BME280;69172;52.352;5.006;2024-03-23T06:10:20;100902.13;;;6.33;100.00
79703;BME280;69172;52.352;5.006;2024-03-23T06:12:47;100896.44;;;6.37;100.00
79703;BME280;69172;52.352;5.006;2024-03-23T06:15:14;100900.13;;;6.40;100.00
79703;BME280;69172;52.352;5.006;2024-03-23T06:17:39;100897.00;;;6.44;100.00
79703;BME280;69172;52.352;5.006;2024-03-23T06:20:05;100901.13;;;6.54;100.00
79703;BME280;69172;52.352;5.006;2024-03-23T06:22:32;100906.31;;;6.55;100.00
79703;BME280;69172;52.352;5.006;2024-03-23T06:24:57;100901.00;;;6.64;100.00
79703;BME280;69172;52.352;5.006;2024-03-23T06:27:23;100894.88;;;6.74;100.00
79703;BME280;69172;52.352;5.006;2024-03-23T06:29:48;100906.63;;;6.83;100.00
79703;BME280;69172;52.352;5.006;2024-03-23T06:32:13;100903.63;;;6.77;100.00
79703;BME280;69172;52.352;5.006;2024-03-23T06:34:41;100897.09;;;6.81;100.00
79703;BME280;69172;52.352;5.006;2024-03-23T06:37:08;100899.19;;;6.75;100.00
79703;BME280;69172;52.352;5.006;2024-03-23T06:39:38;100881.88;;;6.71;100.00
79703;BME280;69172;52.352;5.006;2024-03-23T06:48:45;100885.69;;;7.12;100.00
79703;BME280;69172;52.352;5.006;2024-03-23T06:51:44;100888.59;;;7.05;100.00
79703;BME280;69172;52.352;5.006;2024-03-23T06:54:22;100893.91;;;7.08;100.00
79703;BME280;69172;52.352;5.006;2024-03-23T06:57:01;100899.78;;;7.07;100.00
79703;BME280;69172;52.352;5.006;2024-03-23T06:59:28;100890.91;;;7.02;100.00
79703;BME280;69172;52.352;5.006;2024-03-23T07:01:55;100898.25;;;7.09;100.00
79703;BME280;69172;52.352;5.006;2024-03-23T07:04:21;100902.56;;;7.10;100.00
79703;BME280;69172;52.352;5.006;2024-03-23T07:06:48;100889.09;;;7.24;100.00
79703;BME280;69172;52.352;5.006;2024-03-23T07:09:14;100899.75;;;7.30;100.00
79703;BME280;69172;52.352;5.006;2024-03-23T07:11:39;100895.41;;;7.29;100.00
79703;BME280;69172;52.352;5.006;2024-03-23T07:14:05;100902.34;;;7.18;100.00
79703;BME280;69172;52.352;5.006;2024-03-23T07:16:30;100898.88;;;7.18;100.00
79703;BME280;69172;52.352;5.006;2024-03-23T07:18:57;100901.59;;;7.08;100.00
79703;BME280;69172;52.352;5.006;2024-03-23T07:21:24;100896.63;;;6.98;100.00
79703;BME280;69172;52.352;5.006;2024-03-23T07:23:49;100911.75;;;6.95;100.00
79703;BME280;69172;52.352;5.006;2024-03-23T07:26:20;100900.72;;;6.96;100.00
79703;BME280;69172;52.352;5.006;2024-03-23T07:28:46;100898.28;;;6.97;100.00
79703;BME280;69172;52.352;5.006;2024-03-23T07:31:13;100902.34;;;7.07;100.00
79703;BME280;69172;52.352;5.006;2024-03-23T07:33:48;100912.78;;;7.22;100.00
79703;BME280;69172;52.352;5.006;2024-03-23T07:36:18;100894.56;;;7.17;100.00
79703;BME280;69172;52.352;5.006;2024-03-23T07:38:43;100912.41;;;7.29;100.00
79703;BME280;69172;52.352;5.006;2024-03-23T07:41:17;100914.19;;;7.30;100.00
79703;BME280;69172;52.352;5.006;2024-03-23T07:43:44;100890.13;;;7.14;100.00
79703;BME280;69172;52.352;5.006;2024-03-23T07:46:10;100902.69;;;7.11;100.00
79703;BME280;69172;52.352;5.006;2024-03-23T07:48:41;100914.13;;;7.16;100.00
79703;BME280;69172;52.352;5.006;2024-03-23T07:51:15;100890.66;;;7.22;100.00
79703;BME280;69172;52.352;5.006;2024-03-23T07:53:43;100900.84;;;7.34;100.00
79703;BME280;69172;52.352;5.006;2024-03-23T07:59:30;100892.53;;;7.25;100.00
79703;BME280;69172;52.352;5.006;2024-03-23T08:01:57;100893.09;;;7.20;100.00
79703;BME280;69172;52.352;5.006;2024-03-23T08:04:23;100894.94;;;7.35;100.00
79703;BME280;69172;52.352;5.006;2024-03-23T08:06:55;100894.50;;;7.53;100.00
79703;BME280;69172;52.352;5.006;2024-03-23T08:09:22;100896.31;;;7.54;100.00
79703;BME280;69172;52.352;5.006;2024-03-23T08:11:49;100884.16;;;7.63;97.66
79703;BME280;69172;52.352;5.006;2024-03-23T08:14:15;100897.13;;;7.66;94.53
79703;BME280;69172;52.352;5.006;2024-03-23T08:16:41;100886.06;;;7.79;94.21
79703;BME280;69172;52.352;5.006;2024-03-23T08:19:07;100881.94;;;7.94;94.20
79703;BME280;69172;52.352;5.006;2024-03-23T08:21:34;100897.69;;;7.87;93.84
79703;BME280;69172;52.352;5.006;2024-03-23T08:23:59;100892.34;;;7.71;93.22
79703;BME280;69172;52.352;5.006;2024-03-23T08:26:25;100897.28;;;7.56;92.30
79703;BME280;69172;52.352;5.006;2024-03-23T08:28:51;100898.91;;;7.67;91.70
79703;BME280;69172;52.352;5.006;2024-03-23T08:31:16;100897.19;;;7.79;89.84
79703;BME280;69172;52.352;5.006;2024-03-23T08:33:43;100887.19;;;7.96;89.35
79703;BME280;69172;52.352;5.006;2024-03-23T08:36:10;100894.88;;;7.96;87.80
79703;BME280;69172;52.352;5.006;2024-03-23T08:38:39;100878.34;;;8.17;87.60
79703;BME280;69172;52.352;5.006;2024-03-23T08:41:08;100889.97;;;8.12;86.73
79703;BME280;69172;52.352;5.006;2024-03-23T08:43:39;100890.47;;;8.19;88.03
79703;BME280;69172;52.352;5.006;2024-03-23T08:46:11;100891.03;;;8.15;87.45
79703;BME280;69172;52.352;5.006;2024-03-23T08:48:43;100881.88;;;8.06;87.61
79703;BME280;69172;52.352;5.006;2024-03-23T08:51:10;100877.44;;;8.03;88.18
79703;BME280;69172;52.352;5.006;2024-03-23T08:53:36;100882.38;;;8.13;85.33
79703;BME280;69172;52.352;5.006;2024-03-23T08:56:03;100884.19;;;8.27;86.08
79703;BME280;69172;52.352;5.006;2024-03-23T08:58:31;100870.81;;;8.31;85.07
79703;BME280;69172;52.352;5.006;2024-03-23T09:01:18;100883.19;;;8.25;84.26
79703;BME280;69172;52.352;5.006;2024-03-23T09:03:44;100886.44;;;8.10;83.26
79703;BME280;69172;52.352;5.006;2024-03-23T09:06:12;100875.94;;;7.94;84.43
79703;BME280;69172;52.352;5.006;2024-03-23T09:08:38;100886.22;;;8.07;83.95
79703;BME280;69172;52.352;5.006;2024-03-23T09:11:09;100899.03;;;8.20;84.58
79703;BME280;69172;52.352;5.006;2024-03-23T09:13:35;100879.06;;;8.27;84.72
79703;BME280;69172;52.352;5.006;2024-03-23T09:16:03;100884.88;;;8.38;84.71
79703;BME280;69172;52.352;5.006;2024-03-23T09:18:33;100880.16;;;8.57;84.23
79703;BME280;69172;52.352;5.006;2024-03-23T09:20:59;100870.97;;;8.74;84.51
79703;BME280;69172;52.352;5.006;2024-03-23T09:23:24;100884.00;;;8.64;83.63
79703;BME280;69172;52.352;5.006;2024-03-23T09:25:50;100901.34;;;8.42;85.98
79703;BME280;69172;52.352;5.006;2024-03-23T09:28:15;100889.38;;;7.78;90.94
79703;BME280;69172;52.352;5.006;2024-03-23T09:30:42;100886.81;;;7.78;95.99
79703;BME280;69172;52.352;5.006;2024-03-23T09:33:34;100891.44;;;7.70;97.37
79703;BME280;69172;52.352;5.006;2024-03-23T09:36:04;100878.00;;;7.61;97.34
79703;BME280;69172;52.352;5.006;2024-03-23T09:38:29;100889.78;;;7.71;96.90
79703;BME280;69172;52.352;5.006;2024-03-23T09:41:27;100884.47;;;7.81;97.77
79703;BME280;69172;52.352;5.006;2024-03-23T09:43:53;100909.19;;;7.80;94.47
79703;BME280;69172;52.352;5.006;2024-03-23T09:46:19;100889.31;;;7.90;89.36
79703;BME280;69172;52.352;5.006;2024-03-23T09:48:46;100883.22;;;7.88;88.50
79703;BME280;69172;52.352;5.006;2024-03-23T09:51:12;100885.38;;;7.82;85.51
79703;BME280;69172;52.352;5.006;2024-03-23T09:53:37;100869.28;;;7.71;86.04
79703;BME280;69172;52.352;5.006;2024-03-23T09:56:04;100877.47;;;7.78;86.87
79703;BME280;69172;52.352;5.006;2024-03-23T09:58:30;100883.06;;;7.73;87.63
79703;BME280;69172;52.352;5.006;2024-03-23T10:00:57;100866.13;;;7.75;87.05
79703;BME280;69172;52.352;5.006;2024-03-23T10:03:31;100879.53;;;7.71;89.92
79703;BME280;69172;52.352;5.006;2024-03-23T10:06:01;100890.13;;;7.64;92.79
79703;BME280;69172;52.352;5.006;2024-03-23T10:08:28;100873.22;;;7.66;88.98
79703;BME280;69172;52.352;5.006;2024-03-23T10:10:54;100878.94;;;7.75;86.90
79703;BME280;69172;52.352;5.006;2024-03-23T10:13:26;100896.97;;;7.76;88.49
79703;BME280;69172;52.352;5.006;2024-03-23T10:15:56;100894.94;;;7.84;91.42
79703;BME280;69172;52.352;5.006;2024-03-23T10:18:25;100901.19;;;7.76;87.88
79703;BME280;69172;52.352;5.006;2024-03-23T10:23:32;100866.91;;;8.12;82.45
79703;BME280;69172;52.352;5.006;2024-03-23T10:26:25;100864.84;;;8.19;82.53
79703;BME280;69172;52.352;5.006;2024-03-23T10:28:59;100873.41;;;8.07;85.45
79703;BME280;69172;52.352;5.006;2024-03-23T10:31:36;100868.78;;;8.01;87.59
79703;BME280;69172;52.352;5.006;2024-03-23T10:34:03;100876.94;;;8.09;88.62
79703;BME280;69172;52.352;5.006;2024-03-23T10:36:30;100876.19;;;8.23;88.62
79703;BME280;69172;52.352;5.006;2024-03-23T10:38:56;100888.28;;;8.12;92.40
79703;BME280;69172;52.352;5.006;2024-03-23T10:41:26;100878.59;;;7.95;93.49
79703;BME280;69172;52.352;5.006;2024-03-23T10:43:53;100874.88;;;7.65;96.32
79703;BME280;69172;52.352;5.006;2024-03-23T10:46:28;100867.56;;;7.58;97.01
79703;BME280;69172;52.352;5.006;2024-03-23T10:48:55;100873.00;;;7.63;92.96
79703;BME280;69172;52.352;5.006;2024-03-23T10:51:20;100874.28;;;7.69;92.43
79703;BME280;69172;52.352;5.006;2024-03-23T10:53:47;100876.63;;;7.66;89.71
79703;BME280;69172;52.352;5.006;2024-03-23T10:56:18;100869.84;;;7.67;89.30
79703;BME280;69172;52.352;5.006;2024-03-23T10:58:54;100873.81;;;7.75;89.83
79703;BME280;69172;52.352;5.006;2024-03-23T11:01:27;100857.28;;;7.83;85.12
79703;BME280;69172;52.352;5.006;2024-03-23T11:03:58;100869.53;;;7.87;84.54
79703;BME280;69172;52.352;5.006;2024-03-23T11:06:38;100858.44;;;7.62;84.11
79703;BME280;69172;52.352;5.006;2024-03-23T11:09:42;100889.28;;;7.76;83.16
79703;BME280;69172;52.352;5.006;2024-03-23T11:15:03;100872.28;;;7.90;83.63
79703;BME280;69172;52.352;5.006;2024-03-23T11:17:30;100875.16;;;7.95;84.69
79703;BME280;69172;52.352;5.006;2024-03-23T11:22:45;100873.69;;;7.98;83.97
79703;BME280;69172;52.352;5.006;2024-03-23T11:25:21;100867.81;;;8.12;81.00
79703;BME280;69172;52.352;5.006;2024-03-23T11:27:57;100862.19;;;8.18;80.15
79703;BME280;69172;52.352;5.006;2024-03-23T11:30:31;100865.13;;;8.24;79.19
79703;BME280;69172;52.352;5.006;2024-03-23T11:33:12;100867.69;;;8.24;80.73
79703;BME280;69172;52.352;5.006;2024-03-23T11:35:40;100854.25;;;8.40;79.68
79703;BME280;69172;52.352;5.006;2024-03-23T11:41:55;100848.19;;;8.65;77.81
79703;BME280;69172;52.352;5.006;2024-03-23T11:44:33;100850.53;;;8.75;77.33
79703;BME280;69172;52.352;5.006;2024-03-23T11:47:08;100840.75;;;8.42;77.34
79703;BME280;69172;52.352;5.006;2024-03-23T11:49:38;100860.03;;;8.37;78.93
79703;BME280;69172;52.352;5.006;2024-03-23T11:52:25;100859.81;;;8.21;75.35
79703;BME280;69172;52.352;5.006;2024-03-23T11:54:51;100871.13;;;7.98;76.09
79703;BME280;69172;52.352;5.006;2024-03-23T11:57:17;100881.47;;;8.00;78.73
79703;BME280;69172;52.352;5.006;2024-03-23T11:59:43;100855.78;;;8.11;80.04
79703;BME280;69172;52.352;5.006;2024-03-23T12:02:10;100878.34;;;8.17;82.02
79703;BME280;69172;52.352;5.006;2024-03-23T12:04:37;100865.53;;;8.04;83.91
79703;BME280;69172;52.352;5.006;2024-03-23T12:07:16;100883.28;;;7.76;86.55
79703;BME280;69172;52.352;5.006;2024-03-23T12:10:02;100878.66;;;7.46;90.72
79703;BME280;69172;52.352;5.006;2024-03-23T12:12:28;100876.56;;;7.04;100.00
79703;BME280;69172;52.352;5.006;2024-03-23T12:15:07;100850.47;;;6.37;100.00
79703;BME280;69172;52.352;5.006;2024-03-23T12:17:33;100918.97;;;6.08;100.00
79703;BME280;69172;52.352;5.006;2024-03-23T12:20:00;100897.44;;;5.82;100.00
79703;BME280;69172;52.352;5.006;2024-03-23T12:22:27;100867.06;;;5.52;100.00
79703;BME280;69172;52.352;5.006;2024-03-23T12:24:54;100860.97;;;5.50;100.00
79703;BME280;69172;52.352;5.006;2024-03-23T12:27:20;100867.22;;;5.54;100.00
79703;BME280;69172;52.352;5.006;2024-03-23T12:29:45;100859.38;;;5.62;100.00
79703;BME280;69172;52.352;5.006;2024-03-23T12:32:15;100846.19;;;5.68;100.00
79703;BME280;69172;52.352;5.006;2024-03-23T12:34:41;100850.19;;;5.76;100.00
79703;BME280;69172;52.352;5.006;2024-03-23T12:37:07;100844.00;;;5.84;100.00
79703;BME280;69172;52.352;5.006;2024-03-23T12:39:33;100844.13;;;5.85;100.00
79703;BME280;69172;52.352;5.006;2024-03-23T12:42:00;100845.81;;;5.96;100.00
79703;BME280;69172;52.352;5.006;2024-03-23T12:44:33;100825.63;;;6.11;100.00
79703;BME280;69172;52.352;5.006;2024-03-23T12:46:59;100834.38;;;6.26;100.00
79703;BME280;69172;52.352;5.006;2024-03-23T12:49:25;100816.50;;;6.38;100.00
79703;BME280;69172;52.352;5.006;2024-03-23T12:51:56;100819.69;;;6.58;100.00
79703;BME280;69172;52.352;5.006;2024-03-23T12:54:23;100839.06;;;6.80;100.00
79703;BME280;69172;52.352;5.006;2024-03-23T12:56:49;100815.72;;;6.87;100.00
79703;BME280;69172;52.352;5.006;2024-03-23T12:59:15;100829.69;;;7.03;100.00
79703;BME280;69172;52.352;5.006;2024-03-23T13:01:42;100814.69;;;7.21;100.00
79703;BME280;69172;52.352;5.006;2024-03-23T13:04:08;100846.38;;;7.48;100.00
79703;BME280;69172;52.352;5.006;2024-03-23T13:06:34;100890.59;;;7.09;100.00
79703;BME280;69172;52.352;5.006;2024-03-23T13:09:01;100848.19;;;7.12;100.00
79703;BME280;69172;52.352;5.006;2024-03-23T13:11:27;100873.00;;;7.13;100.00
79703;BME280;69172;52.352;5.006;2024-03-23T13:13:52;100834.59;;;7.00;96.10
79703;BME280;69172;52.352;5.006;2024-03-23T13:16:19;100848.63;;;6.82;96.63
79703;BME280;69172;52.352;5.006;2024-03-23T13:18:44;100828.84;;;6.80;95.98
79703;BME280;69172;52.352;5.006;2024-03-23T13:21:09;100831.97;;;6.87;94.79
79703;BME280;69172;52.352;5.006;2024-03-23T13:23:35;100819.66;;;7.06;93.58
79703;BME280;69172;52.352;5.006;2024-03-23T13:26:02;100815.75;;;7.11;98.93
79703;BME280;69172;52.352;5.006;2024-03-23T13:28:28;100812.38;;;6.88;99.70
79703;BME280;69172;52.352;5.006;2024-03-23T13:30:56;100798.56;;;6.97;100.00
79703;BME280;69172;52.352;5.006;2024-03-23T13:33:22;100807.34;;;7.01;100.00
79703;BME280;69172;52.352;5.006;2024-03-23T13:35:51;100810.38;;;7.20;100.00
79703;BME280;69172;52.352;5.006;2024-03-23T13:38:18;100797.47;;;7.43;100.00
79703;BME280;69172;52.352;5.006;2024-03-23T13:40:51;100795.63;;;7.54;96.09
79703;BME280;69172;52.352;5.006;2024-03-23T13:43:16;100783.72;;;7.67;95.69
79703;BME280;69172;52.352;5.006;2024-03-23T13:45:41;100765.25;;;7.98;93.59
79703;BME280;69172;52.352;5.006;2024-03-23T13:48:09;100764.75;;;8.16;85.15
79703;BME280;69172;52.352;5.006;2024-03-23T13:50:35;100773.28;;;8.56;85.01
79703;BME280;69172;52.352;5.006;2024-03-23T13:53:01;100781.16;;;8.59;80.67
79703;BME280;69172;52.352;5.006;2024-03-23T13:55:26;100765.13;;;8.49;78.76
79703;BME280;69172;52.352;5.006;2024-03-23T13:57:52;100764.69;;;8.69;78.87
79703;BME280;69172;52.352;5.006;2024-03-23T14:00:17;100772.41;;;8.83;73.41
79703;BME280;69172;52.352;5.006;2024-03-23T14:02:44;100755.28;;;8.82;73.13
79703;BME280;69172;52.352;5.006;2024-03-23T14:05:09;100772.00;;;8.63;72.02
79703;BME280;69172;52.352;5.006;2024-03-23T14:07:36;100777.47;;;8.41;74.83
79703;BME280;69172;52.352;5.006;2024-03-23T14:10:05;100762.19;;;8.16;75.05
79703;BME280;69172;52.352;5.006;2024-03-23T14:12:36;100781.09;;;7.79;75.56
79703;BME280;69172;52.352;5.006;2024-03-23T14:15:05;100766.00;;;7.70;76.72
79703;BME280;69172;52.352;5.006;2024-03-23T14:17:31;100761.19;;;7.75;79.00
79703;BME280;69172;52.352;5.006;2024-03-23T14:19:56;100761.38;;;7.91;79.13